Time;durP1;ratioP1;P1;durP2;ratioP2;P2;SDS_P1;SDS_P2;PMS_P1;PMS_P2;Temp;Humidity;BMP_temperature;BMP_pressure;BME280_temperature;BME280_humidity;BME280_pressure;Samples;Min_cycle;Max_cycle;Signal;HPM_P1;HPM_P2
2021/08/31 04:00:50;;;;;;;20.10;18.17;;;16.00;99.90;;;;;;5773485;23;20523;-64
2021/08/31 04:03:18;;;;;;;19.70;17.83;;;15.90;99.90;;;;;;4999230;28;20810;-64
2021/08/31 04:05:45;;;;;;;19.47;17.47;;;16.00;99.90;;;;;;4999911;28;20482;-65
2021/08/31 04:08:11;;;;;;;20.07;18.07;;;16.00;99.90;;;;;;4999679;28;20453;-65
2021/08/31 04:10:38;;;;;;;24.30;19.67;;;15.90;99.90;;;;;;4999648;28;20480;-66
2021/08/31 04:13:06;;;;;;;19.87;17.87;;;15.90;99.90;;;;;;4999224;28;20821;-65
2021/08/31 04:15:33;;;;;;;21.20;18.80;;;15.90;99.90;;;;;;4999108;28;20449;-65
2021/08/31 04:18:01;;;;;;;19.40;17.60;;;16.00;99.90;;;;;;4998727;28;20823;-66
2021/08/31 04:20:28;;;;;;;21.37;19.13;;;16.00;99.90;;;;;;4998457;28;20897;-66
2021/08/31 04:22:54;;;;;;;21.87;19.57;;;16.00;99.90;;;;;;4998908;28;20480;-65
2021/08/31 04:25:22;;;;;;;19.17;17.27;;;16.00;99.90;;;;;;4999231;28;20461;-65
2021/08/31 04:27:48;;;;;;;21.00;18.83;;;15.90;99.90;;;;;;4999099;28;20453;-65
2021/08/31 04:30:15;;;;;;;20.43;18.37;;;16.00;99.90;;;;;;4999841;28;20460;-65
2021/08/31 04:32:42;;;;;;;20.10;18.20;;;16.00;99.90;;;;;;4999082;28;20453;-65
2021/08/31 04:35:11;;;;;;;19.60;17.70;;;16.00;99.90;;;;;;5000130;28;20461;-65
2021/08/31 04:37:37;;;;;;;21.13;18.93;;;16.00;99.90;;;;;;5000612;28;20811;-64
2021/08/31 04:40:05;;;;;;;20.10;18.10;;;16.00;99.90;;;;;;4999865;28;20925;-65
2021/08/31 04:42:32;;;;;;;20.30;18.20;;;16.00;99.90;;;;;;5000116;28;20481;-65
2021/08/31 04:44:58;;;;;;;22.70;18.37;;;16.10;99.90;;;;;;5000573;28;20472;-66
2021/08/31 04:47:25;;;;;;;20.27;18.17;;;16.00;99.90;;;;;;4998197;28;20486;-64
2021/08/31 04:49:52;;;;;;;20.00;18.00;;;16.00;99.90;;;;;;4997934;28;20457;-66
2021/08/31 04:52:20;;;;;;;20.23;18.20;;;16.10;99.90;;;;;;4998911;28;20488;-66
2021/08/31 04:54:47;;;;;;;21.10;18.90;;;16.10;99.90;;;;;;4998551;28;20464;-64
2021/08/31 04:57:13;;;;;;;19.57;17.67;;;16.10;99.90;;;;;;4998436;28;20454;-64
2021/08/31 04:59:40;;;;;;;20.57;18.57;;;16.10;99.90;;;;;;4998328;28;20450;-66
2021/08/31 05:02:07;;;;;;;19.57;17.50;;;16.10;99.90;;;;;;4997889;28;20488;-65
2021/08/31 05:04:35;;;;;;;20.03;18.03;;;16.10;99.90;;;;;;4998205;28;20458;-64
2021/08/31 05:07:03;;;;;;;21.47;19.17;;;16.00;99.90;;;;;;4998555;28;20478;-64
2021/08/31 05:09:32;;;;;;;21.00;19.00;;;16.00;99.90;;;;;;4998172;28;20469;-65
2021/08/31 05:11:58;;;;;;;21.73;19.50;;;16.10;99.90;;;;;;4997741;28;20474;-65
2021/08/31 05:14:25;;;;;;;20.57;18.30;;;16.10;99.90;;;;;;4997589;28;20801;-65
2021/08/31 05:16:52;;;;;;;20.80;18.43;;;16.10;99.90;;;;;;4997976;28;20457;-65
2021/08/31 05:19:19;;;;;;;20.17;18.00;;;16.10;99.90;;;;;;4998348;28;20492;-63
2021/08/31 05:21:48;;;;;;;21.10;18.67;;;16.10;99.90;;;;;;4998343;28;20477;-64
2021/08/31 05:24:15;;;;;;;21.40;19.17;;;16.10;99.90;;;;;;4998440;28;20457;-64
2021/08/31 05:26:43;;;;;;;19.93;17.83;;;16.10;99.90;;;;;;4998024;28;20984;-63
2021/08/31 05:29:10;;;;;;;17.67;16.07;;;16.10;99.90;;;;;;4998348;28;20956;-64
2021/08/31 05:31:36;;;;;;;18.30;16.57;;;16.10;99.90;;;;;;4998873;28;20485;-63
2021/08/31 05:34:03;;;;;;;17.40;15.73;;;16.20;99.90;;;;;;4998379;28;20821;-64
2021/08/31 05:36:30;;;;;;;19.30;17.30;;;16.20;99.90;;;;;;4998379;28;20454;-65
2021/08/31 05:38:57;;;;;;;17.43;15.73;;;16.20;99.90;;;;;;4997774;28;20941;-65
2021/08/31 05:41:24;;;;;;;18.43;16.77;;;16.20;99.90;;;;;;4997479;28;20479;-65
2021/08/31 05:43:52;;;;;;;19.63;17.73;;;16.20;99.90;;;;;;4997510;28;20460;-64
2021/08/31 05:46:19;;;;;;;18.00;16.20;;;16.20;99.90;;;;;;4997078;28;20488;-63
2021/08/31 05:48:45;;;;;;;17.27;15.83;;;16.20;99.90;;;;;;4997913;28;20458;-65
2021/08/31 05:51:13;;;;;;;18.13;16.20;;;16.20;99.90;;;;;;4997751;28;20478;-64
2021/08/31 05:53:40;;;;;;;19.50;17.60;;;16.30;99.90;;;;;;4997013;28;20454;-65
2021/08/31 05:56:06;;;;;;;17.70;15.90;;;16.20;99.90;;;;;;4997548;28;20504;-65
2021/08/31 05:58:33;;;;;;;17.63;15.83;;;16.30;99.90;;;;;;4997125;28;20457;-65
2021/08/31 06:01:01;;;;;;;18.30;16.50;;;16.30;99.90;;;;;;4996743;28;20481;-64
2021/08/31 06:03:28;;;;;;;18.87;15.57;;;16.30;99.90;;;;;;4997032;28;20457;-65
2021/08/31 06:05:55;;;;;;;17.70;15.90;;;16.30;99.90;;;;;;4996807;28;20460;-65
2021/08/31 06:08:22;;;;;;;16.57;15.17;;;16.30;99.90;;;;;;4997047;28;20469;-65
2021/08/31 06:10:48;;;;;;;16.50;14.80;;;16.30;99.90;;;;;;4996830;28;20985;-66
2021/08/31 06:13:15;;;;;;;17.10;15.30;;;16.30;99.90;;;;;;4997178;28;20461;-66
2021/08/31 06:15:42;;;;;;;17.00;15.30;;;16.30;99.90;;;;;;4996382;28;20473;-65
2021/08/31 06:18:10;;;;;;;15.73;14.33;;;16.30;99.90;;;;;;4996147;28;20786;-65
2021/08/31 06:20:37;;;;;;;14.67;13.40;;;16.40;99.90;;;;;;4995925;28;20481;-65
2021/08/31 06:23:03;;;;;;;15.17;13.87;;;16.40;99.90;;;;;;4995918;28;20492;-65
2021/08/31 06:25:30;;;;;;;17.40;15.80;;;16.40;99.90;;;;;;4996291;28;20453;-65
2021/08/31 06:27:57;;;;;;;15.17;13.80;;;16.40;99.90;;;;;;5001500;28;20572;-64
2021/08/31 06:30:24;;;;;;;14.43;13.00;;;16.50;99.90;;;;;;4996057;28;20823;-65
2021/08/31 06:32:50;;;;;;;14.50;13.30;;;16.50;99.90;;;;;;4996276;28;20465;-65
2021/08/31 06:35:18;;;;;;;16.40;13.20;;;16.60;99.90;;;;;;4996019;28;20454;-62
2021/08/31 06:37:45;;;;;;;14.00;12.60;;;16.50;99.90;;;;;;4995387;28;20963;-65
2021/08/31 06:40:12;;;;;;;14.00;12.63;;;16.70;99.90;;;;;;4995771;28;20457;-66
2021/08/31 06:42:39;;;;;;;14.70;13.20;;;16.70;99.90;;;;;;4997946;28;20460;-64
2021/08/31 06:45:07;;;;;;;12.70;11.60;;;16.80;99.90;;;;;;4997422;28;20916;-65
2021/08/31 06:47:34;;;;;;;13.33;12.13;;;16.90;99.90;;;;;;4997594;28;20485;-65
2021/08/31 06:50:00;;;;;;;13.13;12.03;;;17.00;99.90;;;;;;4997022;28;20457;-65
2021/08/31 06:52:29;;;;;;;12.33;11.33;;;17.00;99.90;;;;;;4995834;28;20470;-65
2021/08/31 06:54:55;;;;;;;12.87;11.77;;;17.00;99.90;;;;;;4995987;28;20462;-65
2021/08/31 06:57:22;;;;;;;13.83;11.90;;;16.90;99.90;;;;;;4995912;28;20445;-65
2021/08/31 06:59:49;;;;;;;13.83;12.43;;;16.80;99.90;;;;;;4995782;28;20450;-65
2021/08/31 07:02:16;;;;;;;12.80;11.70;;;16.70;99.90;;;;;;4995640;28;20497;-65
2021/08/31 07:04:43;;;;;;;14.00;12.60;;;16.80;99.90;;;;;;4995852;28;20457;-65
2021/08/31 07:07:09;;;;;;;13.93;12.73;;;16.80;99.90;;;;;;4995060;28;20486;-63
2021/08/31 07:09:38;;;;;;;13.10;11.90;;;16.90;99.90;;;;;;4996041;28;20457;-64
2021/08/31 07:12:05;;;;;;;13.57;12.10;;;17.10;99.90;;;;;;4995422;28;20500;-64
2021/08/31 07:14:32;;;;;;;14.80;11.33;;;17.20;99.90;;;;;;4995565;28;20465;-65
2021/08/31 07:16:58;;;;;;;14.13;11.93;;;17.30;99.90;;;;;;4995309;28;20457;-63
2021/08/31 07:19:25;;;;;;;14.20;12.87;;;17.40;99.90;;;;;;4995308;28;20817;-63
2021/08/31 07:21:52;;;;;;;11.10;10.13;;;17.60;99.90;;;;;;4995376;28;20478;-63
2021/08/31 07:24:18;;;;;;;11.70;10.80;;;17.80;99.90;;;;;;4995245;28;20458;-65
2021/08/31 07:26:46;;;;;;;11.57;10.30;;;18.00;99.90;;;;;;4994806;28;20992;-65
2021/08/31 07:29:13;;;;;;;12.47;11.47;;;18.00;99.90;;;;;;4995224;28;20457;-65
2021/08/31 07:31:40;;;;;;;12.20;11.10;;;17.90;99.90;;;;;;4995069;28;20484;-65
2021/08/31 07:34:07;;;;;;;12.77;11.57;;;17.80;99.90;;;;;;4995157;28;20462;-65
2021/08/31 07:36:33;;;;;;;11.50;10.30;;;17.60;99.90;;;;;;4994081;28;20948;-65
2021/08/31 07:39:00;;;;;;;12.10;11.10;;;17.70;99.90;;;;;;4994669;28;20815;-65
2021/08/31 07:41:28;;;;;;;12.97;11.77;;;17.60;99.90;;;;;;4994793;28;20832;-65
2021/08/31 07:43:56;;;;;;;12.20;10.97;;;17.70;99.90;;;;;;4994940;28;20512;-64
2021/08/31 07:46:23;;;;;;;12.20;11.20;;;17.70;99.90;;;;;;4995144;28;20454;-64
2021/08/31 07:48:50;;;;;;;12.43;11.30;;;17.70;99.90;;;;;;4995494;28;20461;-64
2021/08/31 07:51:17;;;;;;;11.70;10.70;;;17.70;99.90;;;;;;4994891;28;20484;-64
2021/08/31 07:53:44;;;;;;;11.90;10.93;;;17.70;99.90;;;;;;4995469;28;20457;-64
2021/08/31 07:56:11;;;;;;;13.00;11.90;;;17.70;99.90;;;;;;4994775;28;20466;-63
2021/08/31 07:58:37;;;;;;;12.97;11.80;;;17.40;99.90;;;;;;4994525;28;20449;-64
2021/08/31 08:01:06;;;;;;;12.00;11.10;;;17.60;99.90;;;;;;4994455;28;20980;-63
2021/08/31 08:03:32;;;;;;;12.87;11.57;;;17.60;99.90;;;;;;4994399;28;20971;-64
2021/08/31 08:05:59;;;;;;;12.87;11.40;;;17.70;99.90;;;;;;4994793;28;20789;-64
2021/08/31 08:08:26;;;;;;;17.00;11.70;;;17.90;99.90;;;;;;4994423;28;20478;-64
2021/08/31 08:10:53;;;;;;;11.63;10.63;;;18.10;99.90;;;;;;4994553;28;20474;-63
2021/08/31 08:13:20;;;;;;;11.50;10.40;;;18.20;99.90;;;;;;4994467;28;20453;-64
2021/08/31 08:15:47;;;;;;;12.07;11.03;;;18.30;99.90;;;;;;4994465;28;20458;-63
2021/08/31 08:18:15;;;;;;;11.13;10.13;;;18.40;99.90;;;;;;4994547;28;20549;-64
2021/08/31 08:20:43;;;;;;;12.17;10.70;;;18.60;99.90;;;;;;4994649;28;20473;-64
2021/08/31 08:23:12;;;;;;;10.83;9.77;;;18.70;99.90;;;;;;4994521;28;20491;-64
2021/08/31 08:25:39;;;;;;;11.50;10.60;;;18.90;99.90;;;;;;4994592;28;20493;-64
2021/08/31 08:28:05;;;;;;;12.97;11.87;;;19.00;99.90;;;;;;4994135;28;21012;-63
2021/08/31 08:30:32;;;;;;;11.57;10.37;;;19.00;99.90;;;;;;4994472;28;20484;-64
2021/08/31 08:32:59;;;;;;;11.83;10.93;;;18.90;99.90;;;;;;4994761;28;20484;-64
2021/08/31 08:35:27;;;;;;;11.87;10.77;;;18.80;99.90;;;;;;4994418;28;20461;-63
2021/08/31 08:37:57;;;;;;;12.20;10.40;;;18.80;99.90;;;;;;4994105;28;20809;-63
2021/08/31 08:40:24;;;;;;;10.87;9.97;;;18.60;99.90;;;;;;4994306;28;20508;-66
2021/08/31 08:42:52;;;;;;;11.57;10.40;;;18.80;99.90;;;;;;4994324;28;20941;-63
2021/08/31 08:45:19;;;;;;;11.80;10.80;;;18.90;99.90;;;;;;4994503;28;20481;-63
2021/08/31 08:47:46;;;;;;;10.83;9.83;;;18.90;99.90;;;;;;4997894;28;20477;-63
2021/08/31 08:50:13;;;;;;;10.17;9.43;;;19.10;99.90;;;;;;4998097;28;20489;-63
2021/08/31 08:52:41;;;;;;;10.50;9.50;;;19.20;99.90;;;;;;4999089;28;20458;-63
2021/08/31 08:55:09;;;;;;;9.83;8.93;;;19.20;99.90;;;;;;4997710;28;20461;-63
2021/08/31 08:57:36;;;;;;;10.67;9.80;;;19.30;99.90;;;;;;4997895;28;20457;-63
2021/08/31 09:00:04;;;;;;;10.33;9.53;;;19.40;99.90;;;;;;4997904;28;20454;-63
2021/08/31 09:02:35;;;;;;;9.53;8.73;;;19.40;99.90;;;;;;4997915;28;20532;-64
2021/08/31 09:05:02;;;;;;;9.43;8.63;;;19.40;99.90;;;;;;4997899;28;20458;-63
2021/08/31 09:07:29;;;;;;;11.17;9.80;;;19.60;99.90;;;;;;4997342;28;20474;-64
2021/08/31 09:10:13;;;;;;;11.03;10.23;;;19.70;99.90;;;;;;4997852;28;20460;-63
2021/08/31 09:12:41;;;;;;;10.37;9.40;;;19.80;99.90;;;;;;4998020;28;20438;-65
2021/08/31 09:15:28;;;;;;;9.53;8.63;;;19.90;99.90;;;;;;4997512;28;20454;-65
2021/08/31 09:18:16;;;;;;;9.00;8.20;;;19.90;99.90;;;;;;4997989;28;20430;-64
2021/08/31 09:20:57;;;;;;;9.43;8.63;;;20.00;99.90;;;;;;4997212;28;20948;-63
2021/08/31 09:23:26;;;;;;;9.90;9.20;;;19.90;99.90;;;;;;4997217;28;20428;-63
2021/08/31 09:25:56;;;;;;;11.37;8.90;;;20.00;99.90;;;;;;4997642;28;20446;-63
2021/08/31 09:28:26;;;;;;;9.33;8.50;;;20.00;99.90;;;;;;4997902;28;20470;-63
2021/08/31 09:31:02;;;;;;;10.63;9.60;;;19.70;99.90;;;;;;4997254;28;20484;-64
2021/08/31 09:33:30;;;;;;;9.53;8.83;;;19.60;99.90;;;;;;4997678;28;20476;-64
2021/08/31 09:36:07;;;;;;;9.93;9.03;;;19.70;99.90;;;;;;4998850;28;20453;-64
2021/08/31 09:38:56;;;;;;;12.00;9.13;;;19.80;99.90;;;;;;5000841;28;20492;-64
2021/08/31 09:41:36;;;;;;;9.33;8.60;;;19.80;99.90;;;;;;4996727;28;20824;-64
2021/08/31 09:44:07;;;;;;;11.27;8.60;;;19.90;99.90;;;;;;4999687;28;20438;-64
2021/08/31 09:46:48;;;;;;;8.40;7.80;;;20.00;99.90;;;;;;4999173;28;20452;-64
2021/08/31 09:49:19;;;;;;;9.50;8.70;;;20.00;99.90;;;;;;4998313;28;20978;-64
2021/08/31 09:51:59;;;;;;;8.70;8.03;;;20.10;99.90;;;;;;4998558;28;20473;-64
2021/08/31 09:54:26;;;;;;;8.27;7.67;;;20.00;99.90;;;;;;4999185;28;20444;-63
2021/08/31 09:56:54;;;;;;;7.97;7.27;;;19.80;99.90;;;;;;4999728;28;20485;-63
2021/08/31 09:59:24;;;;;;;8.27;7.67;;;19.90;99.90;;;;;;4997483;28;20450;-63
2021/08/31 10:01:53;;;;;;;7.80;7.20;;;20.00;99.90;;;;;;4999065;28;20816;-64
2021/08/31 10:04:19;;;;;;;8.23;7.60;;;20.10;99.90;;;;;;4998598;28;20963;-65
2021/08/31 10:06:48;;;;;;;8.33;7.63;;;20.20;99.90;;;;;;4999482;28;20453;-65
2021/08/31 10:09:16;;;;;;;7.73;7.03;;;20.20;99.90;;;;;;4999709;28;20482;-65
2021/08/31 10:11:43;;;;;;;8.10;7.40;;;20.20;99.90;;;;;;4999858;28;21028;-65
2021/08/31 10:14:13;;;;;;;14.13;8.90;;;20.10;99.90;;;;;;4996720;28;20457;-65
2021/08/31 10:16:41;;;;;;;9.90;9.20;;;20.10;99.90;;;;;;4996585;28;20445;-66
2021/08/31 10:19:10;;;;;;;9.40;8.70;;;20.10;99.90;;;;;;4996300;28;20969;-65
2021/08/31 10:21:37;;;;;;;9.33;8.50;;;20.00;99.90;;;;;;4996243;28;20568;-65
2021/08/31 10:24:06;;;;;;;8.80;8.07;;;19.90;99.90;;;;;;4996482;28;20481;-65
2021/08/31 10:26:34;;;;;;;8.87;8.03;;;19.80;99.90;;;;;;4996301;28;20461;-65
2021/08/31 10:29:30;;;;;;;8.90;8.10;;;19.90;99.90;;;;;;4996345;28;20481;-65
2021/08/31 10:31:59;;;;;;;8.50;7.90;;;20.00;99.90;;;;;;4995910;28;20477;-65
2021/08/31 10:34:43;;;;;;;9.53;8.60;;;20.10;99.90;;;;;;4996771;28;20462;-65
2021/08/31 10:37:12;;;;;;;9.00;8.13;;;20.10;99.90;;;;;;4996461;28;20448;-65
2021/08/31 10:39:53;;;;;;;11.17;8.87;;;19.90;99.90;;;;;;4996031;28;20464;-65
2021/08/31 10:42:39;;;;;;;8.90;8.07;;;20.20;99.90;;;;;;4995954;28;20504;-65
2021/08/31 10:45:28;;;;;;;8.80;8.10;;;20.30;99.90;;;;;;4995922;28;20485;-65
2021/08/31 10:47:55;;;;;;;8.63;7.93;;;20.30;99.90;;;;;;4996031;28;20481;-65
2021/08/31 10:50:24;;;;;;;8.70;8.10;;;20.40;99.90;;;;;;4995950;28;20454;-65
2021/08/31 10:52:56;;;;;;;9.50;8.60;;;20.30;99.90;;;;;;4995882;28;20458;-65
2021/08/31 10:55:41;;;;;;;10.10;8.20;;;20.50;99.90;;;;;;4996005;28;20529;-66
2021/08/31 10:58:11;;;;;;;8.00;7.40;;;20.70;99.90;;;;;;4995917;28;20453;-63
2021/08/31 11:00:54;;;;;;;9.33;8.27;;;21.00;99.90;;;;;;4996062;28;20485;-65
2021/08/31 11:03:40;;;;;;;7.93;7.33;;;21.20;99.90;;;;;;4995761;28;20442;-65
2021/08/31 11:06:22;;;;;;;8.50;7.70;;;21.20;99.90;;;;;;4995924;28;20886;-64
2021/08/31 11:09:16;;;;;;;7.33;6.83;;;21.40;99.90;;;;;;4995655;28;20461;-63
2021/08/31 11:11:46;;;;;;;8.40;7.80;;;21.90;99.90;;;;;;4995315;28;21032;-63
2021/08/31 11:14:14;;;;;;;8.07;7.27;;;22.00;99.90;;;;;;4995176;28;20457;-64
2021/08/31 11:16:42;;;;;;;7.20;6.60;;;22.20;99.90;;;;;;4995313;28;20453;-64
2021/08/31 11:19:28;;;;;;;7.70;6.90;;;21.70;99.90;;;;;;4995292;28;20453;-64
2021/08/31 11:21:56;;;;;;;8.23;7.53;;;21.90;99.90;;;;;;4995068;28;20493;-63
2021/08/31 11:24:24;;;;;;;7.03;6.53;;;21.90;99.90;;;;;;4995283;28;20449;-65
2021/08/31 11:26:56;;;;;;;6.83;6.23;;;22.00;99.90;;;;;;4995126;28;20937;-65
2021/08/31 11:29:23;;;;;;;6.97;6.47;;;21.90;99.90;;;;;;4995383;28;20462;-65
2021/08/31 11:31:58;;;;;;;8.10;7.50;;;21.80;99.90;;;;;;4995230;28;20501;-66
2021/08/31 11:34:24;;;;;;;7.57;6.93;;;21.60;99.90;;;;;;4995285;28;20441;-65
2021/08/31 11:37:02;;;;;;;7.87;7.30;;;21.40;99.90;;;;;;4995495;28;20905;-65
2021/08/31 11:39:29;;;;;;;8.00;7.40;;;21.30;99.90;;;;;;4995806;28;20444;-65
2021/08/31 11:41:56;;;;;;;11.30;7.10;;;21.20;99.90;;;;;;4994788;28;20480;-65
2021/08/31 11:44:23;;;;;;;7.37;6.80;;;21.10;99.90;;;;;;4995918;28;20478;-65
2021/08/31 11:46:53;;;;;;;7.43;6.83;;;21.20;99.90;;;;;;4995092;28;20458;-65
2021/08/31 11:49:21;;;;;;;7.07;6.47;;;21.30;99.90;;;;;;4995357;28;20473;-65
2021/08/31 11:52:02;;;;;;;7.90;7.30;;;21.10;99.90;;;;;;4995536;28;20884;-65
2021/08/31 11:54:31;;;;;;;7.57;6.87;;;21.10;99.90;;;;;;4995210;28;20438;-65
2021/08/31 11:57:00;;;;;;;6.60;6.10;;;21.20;99.90;;;;;;4994642;28;20952;-65
2021/08/31 11:59:40;;;;;;;7.70;6.90;;;21.10;99.90;;;;;;4994988;28;20456;-65
2021/08/31 12:02:14;;;;;;;6.90;6.30;;;21.10;99.90;;;;;;4997461;28;20477;-65
2021/08/31 12:04:41;;;;;;;6.73;6.23;;;21.00;99.90;;;;;;4996124;28;20442;-65
2021/08/31 12:07:11;;;;;;;7.17;6.60;;;21.10;99.90;;;;;;4994464;28;20817;-65
2021/08/31 12:09:41;;;;;;;6.73;6.23;;;21.10;99.90;;;;;;4996567;28;20470;-64
2021/08/31 12:12:09;;;;;;;7.20;6.60;;;21.30;99.90;;;;;;4998560;28;20469;-63
2021/08/31 12:14:36;;;;;;;7.03;6.50;;;21.50;99.90;;;;;;4998833;28;20453;-64
2021/08/31 12:17:03;;;;;;;7.20;6.70;;;21.40;99.90;;;;;;4999262;28;20896;-63
2021/08/31 12:19:31;;;;;;;6.63;6.07;;;21.40;99.90;;;;;;4994798;28;20454;-66
2021/08/31 12:22:09;;;;;;;7.10;6.53;;;21.50;99.90;;;;;;4996489;28;20469;-63
2021/08/31 12:24:38;;;;;;;6.67;6.23;;;21.30;99.90;;;;;;4998472;28;20927;-63
2021/08/31 12:27:13;;;;;;;8.40;6.60;;;21.50;99.90;;;;;;4998364;28;20945;-63
2021/08/31 12:29:52;;;;;;;7.47;6.77;;;21.60;99.90;;;;;;4998237;28;20485;-65
2021/08/31 12:32:24;;;;;;;6.10;5.60;;;22.10;99.90;;;;;;4998656;28;20854;-65
2021/08/31 12:34:52;;;;;;;6.17;5.67;;;22.50;99.90;;;;;;4998597;28;20453;-65
2021/08/31 12:37:33;;;;;;;6.90;6.30;;;22.90;99.90;;;;;;4999397;28;20454;-64
2021/08/31 12:40:15;;;;;;;6.80;6.20;;;23.00;99.90;;;;;;4998927;28;20472;-63
2021/08/31 12:42:43;;;;;;;6.60;5.90;;;23.20;99.90;;;;;;4998409;28;20548;-65
2021/08/31 12:45:10;;;;;;;6.50;6.00;;;23.20;99.90;;;;;;4998492;28;20454;-65
2021/08/31 12:47:37;;;;;;;6.43;6.00;;;22.90;99.90;;;;;;4998266;28;20480;-65
2021/08/31 12:50:10;;;;;;;6.77;6.27;;;22.90;99.90;;;;;;4998062;28;20477;-65
2021/08/31 12:52:38;;;;;;;6.47;5.93;;;22.70;99.90;;;;;;4998664;28;20438;-65
2021/08/31 12:55:15;;;;;;;6.10;5.70;;;22.60;99.90;;;;;;4998149;28;20460;-65
2021/08/31 12:57:42;;;;;;;6.87;6.33;;;22.60;99.90;;;;;;4997857;28;20822;-65
2021/08/31 13:00:19;;;;;;;6.70;6.20;;;22.50;99.90;;;;;;4997775;28;20458;-65
2021/08/31 13:02:48;;;;;;;7.17;6.53;;;22.20;99.90;;;;;;4998873;28;20461;-65
2021/08/31 13:05:17;;;;;;;6.70;6.13;;;22.30;99.90;;;;;;5005683;28;20477;-65
2021/08/31 13:07:44;;;;;;;5.93;5.53;;;22.30;99.90;;;;;;4998412;28;20450;-64
2021/08/31 13:10:11;;;;;;;5.90;5.50;;;22.50;99.90;;;;;;4997849;28;20504;-63
2021/08/31 13:12:38;;;;;;;6.70;6.10;;;22.80;99.90;;;;;;4997402;28;20454;-64
2021/08/31 13:15:06;;;;;;;7.30;6.60;;;23.20;99.90;;;;;;4997349;28;20450;-63
2021/08/31 13:17:32;;;;;;;7.03;6.50;;;23.40;99.90;;;;;;4997740;28;20458;-63
2021/08/31 13:19:59;;;;;;;5.90;5.50;;;23.30;99.90;;;;;;4997260;28;20504;-63
2021/08/31 13:22:27;;;;;;;6.07;5.67;;;23.00;99.90;;;;;;4997554;28;20484;-64
2021/08/31 13:24:54;;;;;;;7.13;6.13;;;22.60;99.90;;;;;;4998998;28;20465;-63
2021/08/31 13:27:21;;;;;;;5.83;5.37;;;22.30;99.90;;;;;;4997524;28;20511;-63
2021/08/31 13:29:47;;;;;;;6.80;6.30;;;22.10;99.90;;;;;;4997278;28;20481;-63
2021/08/31 13:32:14;;;;;;;7.07;6.47;;;21.70;99.90;;;;;;4997332;28;20474;-65
2021/08/31 13:34:41;;;;;;;5.60;5.30;;;21.30;99.90;;;;;;4997648;28;20458;-63
2021/08/31 13:37:08;;;;;;;6.20;5.57;;;21.10;99.90;;;;;;4996839;28;20857;-63
2021/08/31 13:39:36;;;;;;;6.80;6.20;;;20.90;99.90;;;;;;4999010;28;20454;-63
2021/08/31 13:42:03;;;;;;;6.57;5.97;;;20.60;99.90;;;;;;4997208;28;20474;-65
2021/08/31 13:44:29;;;;;;;7.03;6.43;;;20.40;99.90;;;;;;4997482;28;20465;-63
2021/08/31 13:46:56;;;;;;;7.67;7.07;;;20.20;99.90;;;;;;4997140;28;20819;-64
2021/08/31 13:49:24;;;;;;;7.47;6.87;;;20.00;99.90;;;;;;4997030;28;20477;-63
2021/08/31 13:51:53;;;;;;;7.03;6.17;;;20.00;99.90;;;;;;4996832;28;20477;-63
2021/08/31 13:54:20;;;;;;;7.50;6.90;;;20.00;99.90;;;;;;4996703;28;20557;-63
2021/08/31 13:56:48;;;;;;;6.73;6.13;;;19.90;99.90;;;;;;4996751;28;20457;-63
2021/08/31 13:59:15;;;;;;;7.53;6.20;;;20.00;99.90;;;;;;4997867;28;20545;-63
2021/08/31 14:01:41;;;;;;;6.13;5.63;;;20.10;99.90;;;;;;4996644;28;20879;-64
2021/08/31 14:04:08;;;;;;;6.90;6.40;;;20.20;99.90;;;;;;4997621;28;20458;-63
2021/08/31 14:06:35;;;;;;;8.60;7.70;;;20.40;99.90;;;;;;4996510;28;20457;-63
2021/08/31 14:09:02;;;;;;;7.03;6.43;;;20.50;99.90;;;;;;4996459;28;20482;-66
2021/08/31 14:11:29;;;;;;;7.03;6.37;;;20.70;99.90;;;;;;4996480;28;20478;-64
2021/08/31 14:13:57;;;;;;;7.03;6.43;;;20.90;99.90;;;;;;4996526;28;20454;-64
2021/08/31 14:16:23;;;;;;;7.00;6.40;;;20.90;99.90;;;;;;4996931;28;20462;-63
2021/08/31 14:18:51;;;;;;;7.67;7.07;;;21.10;99.90;;;;;;4996064;28;20966;-63
2021/08/31 14:21:20;;;;;;;6.00;5.60;;;21.00;99.90;;;;;;4996168;28;20991;-63
2021/08/31 14:23:47;;;;;;;6.97;6.27;;;21.00;99.90;;;;;;4996763;28;20468;-63
2021/08/31 14:26:15;;;;;;;7.40;6.63;;;21.00;99.90;;;;;;4996318;28;20453;-63
2021/08/31 14:28:42;;;;;;;7.20;6.63;;;21.00;99.90;;;;;;4996014;28;20861;-64
2021/08/31 14:31:10;;;;;;;6.63;6.17;;;21.10;99.90;;;;;;4996352;28;20482;-63
2021/08/31 14:33:36;;;;;;;7.07;6.37;;;21.00;99.90;;;;;;4996305;28;20454;-65
2021/08/31 14:36:03;;;;;;;6.50;6.10;;;21.00;99.90;;;;;;4996338;28;20458;-64
2021/08/31 14:38:30;;;;;;;7.10;6.40;;;20.90;99.90;;;;;;4996063;28;20851;-65
2021/08/31 14:40:57;;;;;;;7.30;6.73;;;20.70;99.90;;;;;;4996099;28;20473;-65
2021/08/31 14:43:24;;;;;;;7.37;6.70;;;20.70;99.90;;;;;;4996195;28;20461;-64
2021/08/31 14:45:51;;;;;;;6.60;6.03;;;20.90;99.90;;;;;;4995552;28;20461;-65
2021/08/31 14:48:19;;;;;;;6.93;6.33;;;21.20;99.90;;;;;;4995946;28;20457;-65
2021/08/31 14:50:45;;;;;;;6.37;5.80;;;21.70;99.90;;;;;;4996467;28;20482;-64
2021/08/31 14:53:12;;;;;;;7.50;6.43;;;21.90;99.90;;;;;;4995830;28;20476;-64
2021/08/31 14:55:39;;;;;;;6.53;5.80;;;21.90;99.90;;;;;;4995730;28;20789;-64
2021/08/31 14:58:06;;;;;;;7.20;6.50;;;21.90;99.90;;;;;;4995573;28;20458;-64
2021/08/31 15:00:32;;;;;;;6.77;6.00;;;21.90;99.90;;;;;;4995403;28;20460;-65
2021/08/31 15:02:59;;;;;;;6.30;5.80;;;22.00;99.90;;;;;;4996478;28;20445;-64
2021/08/31 15:05:27;;;;;;;6.33;5.83;;;22.00;99.90;;;;;;4995611;28;20464;-64
2021/08/31 15:07:54;;;;;;;6.53;6.03;;;22.00;99.90;;;;;;4995477;28;20458;-65
2021/08/31 15:10:21;;;;;;;7.00;6.50;;;22.10;99.90;;;;;;4995525;28;20484;-65
2021/08/31 15:12:47;;;;;;;7.20;6.60;;;22.10;99.90;;;;;;4995403;28;20457;-64
2021/08/31 15:15:14;;;;;;;6.80;6.30;;;22.30;99.90;;;;;;4995608;28;20462;-64
2021/08/31 15:17:41;;;;;;;6.23;5.73;;;22.40;99.90;;;;;;4995047;28;20828;-65
2021/08/31 15:20:09;;;;;;;6.20;5.70;;;22.40;99.90;;;;;;4995506;28;20458;-64
2021/08/31 15:22:37;;;;;;;6.40;5.90;;;22.40;99.90;;;;;;4995516;28;20478;-64
2021/08/31 15:25:04;;;;;;;6.83;6.23;;;22.30;99.90;;;;;;4996051;28;20480;-64
2021/08/31 15:27:31;;;;;;;7.27;6.77;;;22.20;99.90;;;;;;4996325;28;20469;-64
2021/08/31 15:29:58;;;;;;;8.50;6.37;;;22.10;99.90;;;;;;4998343;28;20948;-64
2021/08/31 15:32:25;;;;;;;6.53;6.03;;;22.00;99.90;;;;;;4995217;28;20484;-64
2021/08/31 15:34:51;;;;;;;7.30;6.60;;;21.80;99.90;;;;;;4995382;28;20454;-64
2021/08/31 15:37:18;;;;;;;7.17;6.57;;;21.70;99.90;;;;;;4994788;28;20480;-64
2021/08/31 15:39:46;;;;;;;6.37;5.73;;;21.60;99.90;;;;;;4995034;28;20454;-64
2021/08/31 15:42:16;;;;;;;6.77;6.17;;;21.50;99.90;;;;;;4995488;28;20884;-64
2021/08/31 15:44:43;;;;;;;6.53;6.03;;;21.60;99.90;;;;;;4994800;28;20457;-64
2021/08/31 15:47:09;;;;;;;5.90;5.50;;;21.60;99.90;;;;;;4994937;28;20458;-64
2021/08/31 15:49:36;;;;;;;6.40;5.90;;;21.70;99.90;;;;;;4994551;28;20481;-63
2021/08/31 15:52:03;;;;;;;6.83;5.97;;;21.80;99.90;;;;;;4994627;28;20484;-64
2021/08/31 15:54:30;;;;;;;6.30;5.80;;;21.80;99.90;;;;;;4995099;28;20480;-64
2021/08/31 15:56:59;;;;;;;6.57;5.77;;;22.10;99.90;;;;;;5006188;28;20449;-64
2021/08/31 15:59:26;;;;;;;6.30;5.80;;;22.10;99.90;;;;;;5001289;28;20449;-65
2021/08/31 16:01:52;;;;;;;8.03;6.00;;;22.40;99.90;;;;;;5001452;28;20980;-64
2021/08/31 16:04:20;;;;;;;6.00;5.60;;;22.40;99.90;;;;;;5004224;28;20458;-64
2021/08/31 16:06:46;;;;;;;6.50;6.00;;;22.50;99.90;;;;;;5002756;28;20500;-64
2021/08/31 16:09:13;;;;;;;6.40;6.00;;;22.60;99.90;;;;;;4999197;28;20481;-65
2021/08/31 16:11:40;;;;;;;5.80;5.47;;;22.30;99.90;;;;;;4998855;28;20478;-64
2021/08/31 16:14:08;;;;;;;5.73;5.33;;;22.30;99.90;;;;;;4998615;28;20846;-64
2021/08/31 16:16:34;;;;;;;6.57;6.07;;;22.20;99.90;;;;;;4998748;28;20464;-65
2021/08/31 16:19:01;;;;;;;5.80;5.40;;;22.10;99.90;;;;;;4998613;28;20548;-64
2021/08/31 16:21:28;;;;;;;6.17;5.67;;;22.00;99.90;;;;;;4998782;28;20480;-64
2021/08/31 16:23:54;;;;;;;6.37;5.70;;;21.80;99.90;;;;;;4998351;28;20460;-64
2021/08/31 16:26:21;;;;;;;5.90;5.50;;;21.70;99.90;;;;;;4998382;28;20457;-64
2021/08/31 16:28:48;;;;;;;6.00;5.50;;;21.60;99.90;;;;;;4998398;28;20482;-64
2021/08/31 16:31:16;;;;;;;7.03;6.53;;;21.40;99.90;;;;;;4998156;28;20481;-64
2021/08/31 16:33:43;;;;;;;6.27;5.87;;;21.30;99.90;;;;;;4998473;28;20453;-64
2021/08/31 16:36:10;;;;;;;8.33;6.17;;;21.20;99.90;;;;;;4998120;28;20465;-64
2021/08/31 16:38:39;;;;;;;6.83;6.33;;;21.10;99.90;;;;;;4997953;28;21055;-64
2021/08/31 16:41:07;;;;;;;6.43;5.83;;;20.90;99.90;;;;;;4997908;28;20473;-64
2021/08/31 16:43:33;;;;;;;6.60;6.10;;;20.90;99.90;;;;;;4998364;28;20464;-65
2021/08/31 16:46:00;;;;;;;6.50;6.00;;;20.80;99.90;;;;;;4999324;28;20461;-65